createdAt,value
2022-12-17T00:01:41.619Z,132.75
2022-12-17T00:07:01.526Z,117.55
2022-12-17T00:12:21.395Z,104.60
2022-12-17T00:17:42.458Z,120.43
2022-12-17T00:23:02.450Z,111.15
2022-12-17T00:28:22.344Z,102.82
2022-12-17T00:33:43.438Z,106.55
2022-12-17T00:39:03.675Z,104.05
2022-12-17T00:44:23.564Z,109.97
2022-12-17T00:49:49.933Z,101.25
2022-12-17T00:55:06.252Z,94.60
2022-12-17T01:00:26.970Z,95.55
2022-12-17T01:05:53.954Z,93.18
2022-12-17T01:11:17.061Z,94.07
2022-12-17T01:16:36.954Z,86.38
2022-12-17T01:22:10.020Z,88.03
2022-12-17T01:27:29.739Z,85.10
2022-12-17T01:32:48.802Z,93.40
2022-12-17T01:38:10.281Z,85.43
2022-12-17T01:43:31.341Z,84.68
2022-12-17T01:48:55.157Z,97.35
2022-12-17T01:54:16.247Z,92.40
2022-12-17T01:59:37.148Z,97.70
2022-12-17T02:04:57.490Z,90.72
2022-12-17T02:10:22.138Z,107.68
2022-12-17T02:21:03.533Z,115.60
2022-12-17T02:26:28.769Z,117.20
2022-12-17T02:31:51.168Z,104.05
2022-12-17T02:37:10.983Z,121.35
2022-12-17T02:42:30.772Z,109.63
2022-12-17T02:47:52.564Z,123.28
2022-12-17T02:53:12.775Z,119.75
2022-12-17T02:58:33.127Z,116.72
2022-12-17T03:03:54.212Z,121.80
2022-12-17T03:09:15.239Z,125.18
2022-12-17T03:14:35.032Z,124.28
2022-12-17T03:19:56.322Z,134.52
2022-12-17T03:25:24.547Z,123.25
2022-12-17T03:30:48.676Z,121.57
2022-12-17T03:41:30.557Z,127.57
2022-12-17T03:46:50.327Z,129.85
2022-12-17T03:52:10.353Z,123.55
2022-12-17T03:57:31.345Z,123.32
2022-12-17T04:02:51.438Z,121.30
2022-12-17T04:08:23.145Z,130.70
2022-12-17T04:13:45.031Z,116.07
2022-12-17T04:19:05.140Z,117.15
2022-12-17T04:24:25.645Z,135.60
2022-12-17T04:29:46.799Z,106.35
2022-12-17T04:35:06.642Z,108.07
2022-12-17T04:40:27.531Z,108.22
2022-12-17T04:45:48.692Z,104.10
2022-12-17T04:51:08.476Z,112.05
2022-12-17T04:56:28.294Z,115.25
2022-12-17T05:01:49.516Z,114.55
2022-12-17T05:07:09.710Z,110.82
2022-12-17T05:12:29.669Z,118.03
2022-12-17T05:17:50.903Z,112.95
2022-12-17T05:23:12.856Z,120.15
2022-12-17T05:28:32.722Z,100.47
2022-12-17T05:33:53.856Z,115.63
2022-12-17T05:39:13.859Z,109.20
2022-12-17T05:44:33.707Z,99.82
2022-12-17T05:49:54.893Z,103.03
2022-12-17T05:55:16.679Z,107.35
2022-12-17T06:00:36.542Z,97.05
2022-12-17T06:06:12.801Z,98.65
2022-12-17T06:11:33.169Z,118.63
2022-12-17T06:16:53.052Z,101.50
2022-12-17T06:22:19.888Z,105.05
2022-12-17T06:27:39.784Z,109.28
2022-12-17T06:32:59.564Z,99.82
2022-12-17T06:38:21.912Z,96.05
2022-12-17T06:43:41.823Z,96.03
2022-12-17T06:49:01.892Z,99.35
2022-12-17T06:54:23.138Z,86.32
2022-12-17T06:59:43.193Z,100.38
2022-12-17T07:05:02.978Z,99.70
2022-12-17T07:10:25.061Z,91.45
2022-12-17T07:15:44.937Z,87.90
2022-12-17T07:21:05.453Z,87.05
2022-12-17T07:26:26.719Z,94.70
2022-12-17T07:31:46.752Z,80.95
2022-12-17T07:37:06.787Z,85.25
2022-12-17T07:42:27.942Z,82.30
2022-12-17T07:48:02.477Z,88.03
2022-12-17T07:53:23.559Z,84.63
2022-12-17T07:58:59.241Z,82.35
2022-12-17T08:04:19.277Z,81.45
2022-12-17T08:09:39.191Z,87.22
2022-12-17T08:15:00.470Z,78.70
2022-12-17T08:20:20.367Z,85.85
2022-12-17T08:25:41.202Z,75.30
2022-12-17T08:31:06.000Z,85.82
2022-12-17T08:36:27.155Z,88.05
2022-12-17T08:41:52.643Z,94.85
2022-12-17T08:47:15.789Z,95.60
2022-12-17T08:52:32.163Z,87.05
2022-12-17T08:57:52.331Z,78.90
2022-12-17T09:03:15.992Z,80.55
2022-12-17T09:08:36.172Z,87.13
2022-12-17T09:13:57.398Z,81.75
2022-12-17T09:19:18.896Z,83.80
2022-12-17T09:24:39.299Z,84.40
2022-12-17T09:30:01.832Z,81.15
2022-12-17T09:35:23.572Z,77.15
2022-12-17T09:40:43.950Z,83.40
2022-12-17T09:46:08.024Z,82.25
2022-12-17T09:51:38.384Z,74.20
2022-12-17T09:56:59.114Z,81.85
2022-12-17T10:02:21.128Z,73.68
2022-12-17T10:07:43.982Z,68.75
2022-12-17T10:13:03.799Z,69.43
2022-12-17T10:18:24.820Z,70.55
2022-12-17T10:23:58.205Z,71.68
2022-12-17T10:29:30.822Z,64.65
2022-12-17T10:34:54.077Z,72.07
2022-12-17T10:40:17.450Z,65.50
2022-12-17T10:45:39.228Z,67.32
2022-12-17T10:51:03.145Z,66.85
2022-12-17T10:56:24.758Z,65.30
2022-12-17T11:01:44.933Z,63.50
2022-12-17T11:07:06.479Z,68.40
2022-12-17T11:12:30.977Z,66.43
2022-12-17T11:17:53.704Z,68.30
2022-12-17T11:23:15.317Z,76.93
2022-12-17T11:28:36.818Z,75.03
2022-12-17T11:34:00.521Z,70.05
2022-12-17T11:39:24.677Z,67.67
2022-12-17T11:44:53.614Z,72.82
2022-12-17T11:50:29.084Z,69.15
2022-12-17T11:55:52.880Z,77.85
2022-12-17T12:01:28.804Z,78.70
2022-12-17T12:06:55.603Z,74.55
2022-12-17T12:12:21.535Z,68.95
2022-12-17T12:17:50.816Z,71.05
2022-12-17T12:23:14.405Z,68.55
2022-12-17T12:28:48.074Z,79.43
2022-12-17T12:34:11.850Z,73.00
2022-12-17T12:39:35.149Z,63.53
2022-12-17T12:44:59.048Z,76.30
2022-12-17T12:50:23.520Z,71.43
2022-12-17T12:55:54.987Z,80.07
2022-12-17T13:01:14.856Z,84.57
2022-12-17T13:06:32.210Z,76.28
2022-12-17T13:11:39.740Z,78.05
2022-12-17T13:16:49.948Z,83.28
2022-12-17T13:21:52.332Z,72.40
2022-12-17T13:26:56.424Z,82.35
2022-12-17T13:32:09.464Z,86.25
2022-12-17T13:37:16.568Z,83.45
2022-12-17T13:42:25.456Z,73.55
2022-12-17T13:47:30.627Z,83.90
2022-12-17T13:52:34.529Z,70.43
2022-12-17T13:57:39.317Z,84.88
2022-12-17T14:02:42.619Z,85.50
2022-12-17T14:07:45.141Z,72.90
2022-12-17T14:12:50.014Z,77.10
2022-12-17T14:17:52.869Z,81.05
2022-12-17T14:22:56.372Z,82.33
2022-12-17T14:28:01.735Z,65.05
2022-12-17T14:33:04.736Z,71.43
2022-12-17T14:38:07.214Z,71.88
2022-12-17T14:43:14.004Z,64.30
2022-12-17T14:48:16.536Z,78.40
2022-12-17T14:53:26.043Z,71.55
2022-12-17T14:58:29.755Z,76.72
2022-12-17T15:03:33.435Z,70.88
2022-12-17T15:08:37.539Z,66.60
2022-12-17T15:13:41.542Z,79.88
2022-12-17T15:18:43.997Z,77.03
2022-12-17T15:23:46.567Z,74.95
2022-12-17T15:28:50.315Z,80.88
2022-12-17T15:33:52.662Z,69.45
2022-12-17T15:38:55.073Z,74.25
2022-12-17T15:43:58.835Z,85.13
2022-12-17T15:49:01.409Z,82.72
2022-12-17T15:54:03.848Z,89.18
2022-12-17T15:59:07.638Z,101.57
2022-12-17T16:04:16.781Z,95.82
2022-12-17T16:09:24.539Z,84.45
2022-12-17T16:14:28.487Z,89.78
2022-12-17T16:19:30.902Z,93.85
2022-12-17T16:24:33.293Z,86.95
2022-12-17T16:29:37.082Z,84.78
2022-12-17T16:34:41.481Z,85.22
2022-12-17T16:39:43.938Z,76.43
2022-12-17T16:44:47.770Z,86.65
2022-12-17T16:49:50.943Z,91.28
2022-12-17T16:54:54.322Z,89.28
2022-12-17T16:59:58.137Z,94.03
2022-12-17T17:05:00.496Z,98.38
2022-12-17T17:10:02.860Z,86.82
2022-12-17T17:15:07.449Z,83.03
2022-12-17T17:20:11.583Z,89.60
2022-12-17T17:25:13.951Z,85.15
2022-12-17T17:30:17.695Z,82.13
2022-12-17T17:35:20.091Z,77.15
2022-12-17T17:40:22.426Z,96.63
2022-12-17T17:45:26.111Z,98.50
2022-12-17T17:55:30.787Z,88.88
2022-12-17T18:00:34.483Z,100.07
2022-12-17T18:05:41.468Z,106.43
2022-12-17T18:10:44.242Z,102.72
2022-12-17T18:15:47.984Z,89.95
2022-12-17T18:20:50.379Z,97.15
2022-12-17T18:25:52.743Z,97.90
2022-12-17T18:30:56.425Z,84.70
2022-12-17T18:41:25.761Z,89.07
2022-12-17T18:46:30.549Z,93.80
2022-12-17T18:51:34.350Z,100.82
2022-12-17T18:57:00.668Z,88.47
2022-12-17T19:02:00.965Z,106.00
2022-12-17T19:07:03.417Z,101.93
2022-12-17T19:12:06.723Z,100.13
2022-12-17T19:17:10.475Z,98.72
2022-12-17T19:22:12.820Z,86.55
2022-12-17T19:27:15.200Z,80.75
2022-12-17T19:32:18.927Z,102.32
2022-12-17T19:37:21.310Z,104.05
2022-12-17T19:42:30.655Z,91.55
2022-12-17T19:47:40.336Z,100.25
2022-12-17T19:52:42.673Z,112.65
2022-12-17T19:57:45.105Z,110.60
2022-12-17T20:02:48.982Z,130.30
2022-12-17T20:07:51.417Z,113.18
2022-12-17T20:12:53.855Z,114.07
2022-12-17T20:17:57.632Z,114.45
2022-12-17T20:23:00.055Z,115.10
2022-12-17T20:28:02.511Z,119.90
2022-12-17T20:33:06.300Z,123.05
2022-12-17T20:38:08.720Z,135.00
2022-12-17T20:43:11.218Z,116.45
2022-12-17T20:48:16.993Z,137.07
2022-12-17T20:53:20.341Z,115.80
2022-12-17T20:58:22.738Z,125.60
2022-12-17T21:03:27.763Z,95.65
2022-12-17T21:08:30.226Z,99.93
2022-12-17T21:13:32.897Z,109.95
2022-12-17T21:18:36.988Z,86.97
2022-12-17T21:23:39.953Z,100.78
2022-12-17T21:28:44.961Z,103.33
2022-12-17T21:33:49.044Z,98.40
2022-12-17T21:38:51.790Z,94.15
2022-12-17T21:43:54.842Z,103.40
2022-12-17T21:48:59.118Z,96.65
2022-12-17T21:54:02.813Z,101.13
2022-12-17T21:59:11.944Z,100.57
2022-12-17T22:04:15.723Z,108.90
2022-12-17T22:09:26.111Z,107.03
2022-12-17T22:14:41.567Z,107.97
2022-12-17T22:19:45.338Z,88.40
2022-12-17T22:24:47.774Z,123.72
2022-12-17T22:30:07.923Z,122.63
2022-12-17T22:36:41.355Z,126.70
2022-12-17T22:44:32.049Z,115.72
2022-12-17T22:45:59.605Z,122.65
2022-12-17T22:51:14.543Z,143.65
2022-12-17T22:56:40.740Z,139.95
2022-12-17T23:01:48.079Z,140.98
2022-12-17T23:06:51.928Z,146.60
2022-12-17T23:11:54.337Z,154.82
2022-12-17T23:16:56.735Z,158.13
2022-12-17T23:22:00.495Z,164.98
2022-12-17T23:27:02.859Z,178.98
2022-12-17T23:32:05.535Z,137.82
2022-12-17T23:37:09.344Z,137.60
2022-12-17T23:42:11.701Z,149.43
2022-12-17T23:47:14.063Z,141.43
2022-12-17T23:52:17.762Z,124.95
2022-12-17T23:57:20.147Z,131.07
